Time,TemperatureF,DewpointF,PressureIn,WindDirection,WindDirectionDegrees,WindSpeedMPH,WindSpeedGustMPH,Humidity,HourlyPrecipIn,Conditions,Clouds,dailyrainin,SoftwareType,DateUTC
2013-07-09 00:00:00,69.2,69.2,30.01,WNW,290,0.0,0.0,100,0.00,,,0.58,Wunderground v.1.15,2013-07-09 04:00:00,
2013-07-09 00:05:00,69.2,69.2,30.01,WNW,290,0.0,0.0,100,0.00,,,0.00,Wunderground v.1.15,2013-07-09 04:05:00,
2013-07-09 00:25:00,69.2,69.2,30.00,WNW,290,0.0,0.0,100,0.00,,,0.00,Wunderground v.1.15,2013-07-09 04:25:00,
2013-07-09 00:35:00,69.1,69.1,30.00,WNW,290,0.0,0.0,100,0.00,,,0.00,Wunderground v.1.15,2013-07-09 04:35:00,
2013-07-09 00:40:00,69.1,69.1,30.00,WNW,290,0.0,0.0,100,0.00,,,0.00,Wunderground v.1.15,2013-07-09 04:40:00,
2013-07-09 00:50:00,69.0,69.0,30.00,WNW,290,0.0,0.0,100,0.00,,,0.00,Wunderground v.1.15,2013-07-09 04:50:00,
2013-07-09 01:00:00,68.9,68.9,30.00,WNW,290,0.0,0.0,100,0.00,,,0.00,Wunderground v.1.15,2013-07-09 05:00:00,
2013-07-09 01:10:00,68.8,68.8,29.99,WNW,290,0.0,0.0,100,0.00,,,0.00,Wunderground v.1.15,2013-07-09 05:10:00,
2013-07-09 01:15:00,68.7,68.7,30.00,WNW,290,0.0,0.0,100,0.00,,,0.00,Wunderground v.1.15,2013-07-09 05:15:00,
2013-07-09 01:20:00,68.6,68.6,30.00,WNW,290,0.0,0.0,100,0.00,,,0.00,Wunderground v.1.15,2013-07-09 05:20:00,
2013-07-09 01:30:00,68.5,68.5,29.99,WNW,290,0.0,0.0,100,0.00,,,0.00,Wunderground v.1.15,2013-07-09 05:30:00,
2013-07-09 01:35:00,68.5,68.5,29.99,WNW,290,0.0,0.0,100,0.00,,,0.00,Wunderground v.1.15,2013-07-09 05:35:00,
2013-07-09 01:45:00,68.4,68.4,30.00,WNW,290,0.0,0.0,100,0.00,,,0.00,Wunderground v.1.15,2013-07-09 05:45:00,
2013-07-09 01:50:00,68.3,68.3,29.99,WNW,290,0.0,0.0,100,0.00,,,0.00,Wunderground v.1.15,2013-07-09 05:50:00,
2013-07-09 02:00:00,68.3,68.3,29.99,WNW,290,0.0,0.0,100,0.00,,,0.00,Wunderground v.1.15,2013-07-09 06:00:00,
2013-07-09 02:10:00,68.2,68.2,29.99,WNW,290,0.0,0.0,100,0.00,,,0.00,Wunderground v.1.15,2013-07-09 06:10:00,
2013-07-09 02:20:00,68.1,68.1,29.99,WNW,290,0.0,0.0,100,0.00,,,0.00,Wunderground v.1.15,2013-07-09 06:20:00,
2013-07-09 02:50:00,67.9,67.9,29.99,WNW,290,0.0,0.0,100,0.00,,,0.00,Wunderground v.1.15,2013-07-09 06:50:00,
2013-07-09 02:55:00,67.9,67.9,29.99,WNW,290,0.0,0.0,100,0.00,,,0.00,Wunderground v.1.15,2013-07-09 06:55:00,
2013-07-09 03:05:00,67.9,67.9,29.99,WNW,290,0.0,0.0,100,0.00,,,0.00,Wunderground v.1.15,2013-07-09 07:05:00,
2013-07-09 03:15:00,67.9,67.9,29.99,WNW,290,0.0,0.0,100,0.00,,,0.00,Wunderground v.1.15,2013-07-09 07:15:00,
2013-07-09 03:20:00,67.9,67.9,29.99,WNW,290,0.0,0.0,100,0.00,,,0.00,Wunderground v.1.15,2013-07-09 07:20:00,
2013-07-09 03:30:00,67.8,67.8,29.99,WNW,290,0.0,0.0,100,0.00,,,0.00,Wunderground v.1.15,2013-07-09 07:30:00,
2013-07-09 03:35:00,67.8,67.8,29.99,WNW,290,0.0,0.0,100,0.00,,,0.00,Wunderground v.1.15,2013-07-09 07:35:00,
2013-07-09 03:45:00,67.7,67.7,29.99,WNW,290,0.0,0.0,100,0.00,,,0.00,Wunderground v.1.15,2013-07-09 07:45:00,
2013-07-09 03:55:00,67.7,67.7,29.99,WNW,290,0.0,0.0,100,0.00,,,0.00,Wunderground v.1.15,2013-07-09 07:55:00,
2013-07-09 04:05:00,67.8,67.8,29.99,WNW,290,0.0,0.0,100,0.00,,,0.00,Wunderground v.1.15,2013-07-09 08:05:00,
2013-07-09 04:10:00,67.8,67.8,29.99,WNW,290,0.0,0.0,100,0.00,,,0.00,Wunderground v.1.15,2013-07-09 08:10:00,
2013-07-09 04:20:00,67.8,67.8,30.00,WNW,290,0.0,0.0,100,0.00,,,0.00,Wunderground v.1.15,2013-07-09 08:20:00,
2013-07-09 04:25:00,67.9,67.9,29.99,WNW,290,0.0,0.0,100,0.00,,,0.00,Wunderground v.1.15,2013-07-09 08:25:00,
2013-07-09 04:35:00,68.0,68.0,29.99,WNW,290,0.0,0.0,100,0.00,,,0.00,Wunderground v.1.15,2013-07-09 08:35:00,
2013-07-09 04:45:00,68.0,68.0,30.00,WNW,290,0.0,0.0,100,0.00,,,0.00,Wunderground v.1.15,2013-07-09 08:45:00,
2013-07-09 04:55:00,68.0,68.0,30.00,WNW,290,0.0,0.0,100,0.00,,,0.00,Wunderground v.1.15,2013-07-09 08:55:00,
2013-07-09 05:00:00,68.0,68.0,29.99,WNW,290,0.0,0.0,100,0.00,,,0.00,Wunderground v.1.15,2013-07-09 09:00:00,
2013-07-09 05:10:00,68.0,68.0,30.00,WNW,290,0.0,0.0,100,0.00,,,0.00,Wunderground v.1.15,2013-07-09 09:10:00,
2013-07-09 05:20:00,68.1,68.1,30.00,WNW,290,0.0,0.0,100,0.00,,,0.00,Wunderground v.1.15,2013-07-09 09:20:00,
2013-07-09 05:30:00,68.1,68.1,30.00,WNW,290,0.0,0.0,100,0.00,,,0.00,Wunderground v.1.15,2013-07-09 09:30:00,
2013-07-09 05:35:00,68.2,68.2,30.00,WNW,290,0.0,0.0,100,0.00,,,0.01,Wunderground v.1.15,2013-07-09 09:35:00,
2013-07-09 05:45:00,68.2,68.2,30.00,WNW,290,0.0,0.0,100,0.00,,,0.01,Wunderground v.1.15,2013-07-09 09:45:00,
2013-07-09 05:55:00,68.3,68.3,30.00,WNW,290,0.0,0.0,100,0.00,,,0.01,Wunderground v.1.15,2013-07-09 09:55:00,
2013-07-09 06:00:00,68.3,68.3,30.00,WNW,290,0.0,0.0,100,0.00,,,0.01,Wunderground v.1.15,2013-07-09 10:00:00,
2013-07-09 06:10:00,68.3,68.3,30.00,WNW,290,0.0,0.0,100,0.00,,,0.01,Wunderground v.1.15,2013-07-09 10:10:00,
2013-07-09 06:20:00,68.3,68.3,30.00,WNW,290,0.0,0.0,100,0.00,,,0.01,Wunderground v.1.15,2013-07-09 10:20:00,
2013-07-09 06:30:00,68.3,68.3,30.00,WNW,290,0.0,0.0,100,0.00,,,0.01,Wunderground v.1.15,2013-07-09 10:30:00,
2013-07-09 06:35:00,68.3,68.3,30.00,WNW,290,0.0,0.0,100,0.00,,,0.01,Wunderground v.1.15,2013-07-09 10:35:00,
2013-07-09 06:45:00,68.4,68.4,30.00,WNW,290,0.0,0.0,100,0.00,,,0.01,Wunderground v.1.15,2013-07-09 10:45:00,
2013-07-09 06:50:00,68.5,68.5,30.00,WNW,290,0.0,0.0,100,0.00,,,0.01,Wunderground v.1.15,2013-07-09 10:50:00,
2013-07-09 07:00:00,68.5,68.5,30.00,WNW,290,0.0,0.0,100,0.00,,,0.01,Wunderground v.1.15,2013-07-09 11:00:00,
2013-07-09 07:10:00,68.6,68.6,30.00,WNW,290,0.0,0.0,100,0.00,,,0.01,Wunderground v.1.15,2013-07-09 11:10:00,
2013-07-09 07:15:00,68.7,68.7,30.01,WNW,290,0.0,0.0,100,0.00,,,0.01,Wunderground v.1.15,2013-07-09 11:15:00,
2013-07-09 07:25:00,68.8,68.8,30.00,WNW,290,0.0,0.0,100,0.00,,,0.01,Wunderground v.1.15,2013-07-09 11:25:00,
2013-07-09 07:30:00,68.9,68.9,30.00,WNW,290,0.0,0.0,100,0.00,,,0.01,Wunderground v.1.15,2013-07-09 11:30:00,
2013-07-09 07:40:00,69.1,69.1,30.00,WNW,290,0.0,0.0,100,0.00,,,0.01,Wunderground v.1.15,2013-07-09 11:40:00,
2013-07-09 07:45:00,69.3,69.3,30.00,WNW,290,0.0,0.0,100,0.00,,,0.01,Wunderground v.1.15,2013-07-09 11:45:00,
2013-07-09 07:55:00,69.6,69.6,30.00,WNW,290,0.0,0.0,100,0.00,,,0.01,Wunderground v.1.15,2013-07-09 11:55:00,
2013-07-09 08:00:00,69.7,69.7,30.00,WNW,290,0.0,0.0,100,0.00,,,0.01,Wunderground v.1.15,2013-07-09 12:00:00,
2013-07-09 08:10:00,70.0,70.0,30.00,WNW,290,0.0,0.0,100,0.00,,,0.01,Wunderground v.1.15,2013-07-09 12:10:00,
2013-07-09 08:15:00,70.1,70.1,30.01,WNW,290,0.0,0.0,100,0.00,,,0.01,Wunderground v.1.15,2013-07-09 12:15:00,
2013-07-09 08:25:00,70.4,70.4,30.01,WNW,290,0.0,0.0,100,0.00,,,0.01,Wunderground v.1.15,2013-07-09 12:25:00,
2013-07-09 08:30:00,70.6,70.6,30.01,WNW,290,0.0,0.0,100,0.00,,,0.01,Wunderground v.1.15,2013-07-09 12:30:00,
2013-07-09 08:40:00,71.0,71.0,30.01,WNW,290,0.0,0.0,100,0.00,,,0.01,Wunderground v.1.15,2013-07-09 12:40:00,
2013-07-09 08:50:00,71.3,71.3,30.01,WNW,290,0.0,0.0,100,0.00,,,0.01,Wunderground v.1.15,2013-07-09 12:50:00,
2013-07-09 08:55:00,71.5,71.5,30.01,WNW,290,0.0,0.0,100,0.00,,,0.01,Wunderground v.1.15,2013-07-09 12:55:00,
2013-07-09 09:05:00,71.7,71.7,30.01,WNW,290,0.0,0.0,100,0.00,,,0.01,Wunderground v.1.15,2013-07-09 13:05:00,
2013-07-09 09:15:00,71.9,71.9,30.01,WNW,290,0.0,0.0,100,0.00,,,0.01,Wunderground v.1.15,2013-07-09 13:15:00,
2013-07-09 09:20:00,72.3,72.3,30.01,WNW,290,0.0,0.0,100,0.00,,,0.01,Wunderground v.1.15,2013-07-09 13:20:00,
2013-07-09 09:30:00,72.9,72.9,30.01,WNW,290,0.0,0.0,100,0.00,,,0.01,Wunderground v.1.15,2013-07-09 13:30:00,
2013-07-09 09:35:00,73.1,73.1,30.01,WNW,290,0.0,0.0,100,0.00,,,0.01,Wunderground v.1.15,2013-07-09 13:35:00,
2013-07-09 09:45:00,73.3,73.3,30.00,WNW,290,1.0,1.0,100,0.00,,,0.01,Wunderground v.1.15,2013-07-09 13:45:00,
2013-07-09 09:50:00,73.4,73.4,30.00,WNW,290,0.0,0.0,100,0.00,,,0.01,Wunderground v.1.15,2013-07-09 13:50:00,
2013-07-09 10:00:00,74.0,74.0,30.00,WNW,290,0.0,1.0,100,0.00,,,0.01,Wunderground v.1.15,2013-07-09 14:00:00,
2013-07-09 10:10:00,75.0,75.0,30.00,WNW,290,1.0,3.0,100,0.00,,,0.01,Wunderground v.1.15,2013-07-09 14:10:00,
2013-07-09 10:20:00,75.9,75.6,30.00,WNW,290,2.0,4.0,99,0.00,,,0.01,Wunderground v.1.15,2013-07-09 14:20:00,
2013-07-09 10:25:00,76.2,75.0,30.00,WNW,290,2.0,4.0,96,0.00,,,0.01,Wunderground v.1.15,2013-07-09 14:25:00,
2013-07-09 10:35:00,76.9,74.4,30.00,WNW,290,2.0,4.0,92,0.00,,,0.01,Wunderground v.1.15,2013-07-09 14:35:00,
2013-07-09 10:45:00,77.5,73.7,30.00,WNW,290,0.0,1.0,88,0.00,,,0.01,Wunderground v.1.15,2013-07-09 14:45:00,
2013-07-09 10:55:00,77.9,73.4,29.99,WNW,290,0.0,0.0,86,0.00,,,0.01,Wunderground v.1.15,2013-07-09 14:55:00,
2013-07-09 11:05:00,78.3,73.8,29.99,WNW,290,0.0,0.0,86,0.00,,,0.01,Wunderground v.1.15,2013-07-09 15:05:00,
2013-07-09 11:15:00,79.1,73.8,29.99,WNW,290,1.0,1.0,84,0.00,,,0.01,Wunderground v.1.15,2013-07-09 15:15:00,
2013-07-09 11:25:00,79.9,73.5,29.99,WNW,290,0.0,1.0,81,0.00,,,0.01,Wunderground v.1.15,2013-07-09 15:25:00,
2013-07-09 11:35:00,80.2,73.5,29.99,WNW,290,0.0,3.0,80,0.00,,,0.01,Wunderground v.1.15,2013-07-09 15:35:00,
2013-07-09 11:40:00,80.2,73.8,29.98,WNW,290,1.0,2.0,81,0.00,,,0.01,Wunderground v.1.15,2013-07-09 15:40:00,
2013-07-09 11:50:00,80.3,73.9,29.98,WNW,290,2.0,2.0,81,0.00,,,0.01,Wunderground v.1.15,2013-07-09 15:50:00,
2013-07-09 11:55:00,80.5,74.5,29.98,WNW,290,1.0,3.0,82,0.00,,,0.01,Wunderground v.1.15,2013-07-09 15:55:00,
2013-07-09 12:05:00,80.7,73.2,29.98,WNW,290,1.0,1.0,78,0.00,,,0.01,Wunderground v.1.15,2013-07-09 16:05:00,
2013-07-09 12:15:00,80.7,73.6,29.98,WNW,290,2.0,5.0,79,0.00,,,0.01,Wunderground v.1.15,2013-07-09 16:15:00,
2013-07-09 12:25:00,81.2,74.1,29.98,WNW,290,1.0,4.0,79,0.00,,,0.01,Wunderground v.1.15,2013-07-09 16:25:00,
2013-07-09 12:30:00,81.3,73.4,29.97,SSW,201,2.0,3.0,77,0.00,,,0.01,Wunderground v.1.15,2013-07-09 16:30:00,
2013-07-09 12:40:00,81.4,73.5,29.97,South,189,2.0,4.0,77,0.00,,,0.01,Wunderground v.1.15,2013-07-09 16:40:00,
2013-07-09 12:45:00,81.3,73.4,29.97,South,188,2.0,4.0,77,0.00,,,0.01,Wunderground v.1.15,2013-07-09 16:45:00,
2013-07-09 12:55:00,81.2,73.3,29.97,SSW,196,3.0,3.0,77,0.00,,,0.01,Wunderground v.1.15,2013-07-09 16:55:00,
2013-07-09 13:00:00,81.2,73.3,29.97,SSW,209,3.0,3.0,77,0.00,,,0.01,Wunderground v.1.15,2013-07-09 17:00:00,
2013-07-09 13:10:00,81.5,73.6,29.96,SSW,210,1.0,2.0,77,0.00,,,0.01,Wunderground v.1.15,2013-07-09 17:10:00,
2013-07-09 13:20:00,81.3,73.8,29.97,SSW,211,1.0,1.0,78,0.00,,,0.01,Wunderground v.1.15,2013-07-09 17:20:00,
2013-07-09 13:25:00,81.2,73.7,29.97,SW,228,2.0,2.0,78,0.00,,,0.01,Wunderground v.1.15,2013-07-09 17:25:00,
2013-07-09 13:35:00,81.0,73.9,29.97,SSW,200,3.0,3.0,79,0.00,,,0.01,Wunderground v.1.15,2013-07-09 17:35:00,
2013-07-09 13:45:00,80.6,73.1,29.97,SW,236,2.0,6.0,78,0.00,,,0.01,Wunderground v.1.15,2013-07-09 17:45:00,
2013-07-09 13:55:00,79.4,71.9,29.97,SW,217,1.0,3.0,78,0.00,,,0.01,Wunderground v.1.15,2013-07-09 17:55:00,
2013-07-09 14:05:00,78.3,71.6,29.97,SSW,202,3.0,4.0,80,0.00,,,0.01,Wunderground v.1.15,2013-07-09 18:05:00,
2013-07-09 14:10:00,78.0,71.7,29.97,SSW,202,2.0,2.0,81,0.00,,,0.01,Wunderground v.1.15,2013-07-09 18:10:00,
2013-07-09 14:25:00,77.6,72.0,29.96,SSW,202,2.0,2.0,83,0.00,,,0.01,Wunderground v.1.15,2013-07-09 18:25:00,
2013-07-09 14:35:00,77.5,71.9,29.95,SSW,202,0.0,0.0,83,0.00,,,0.01,Wunderground v.1.15,2013-07-09 18:35:00,
2013-07-09 14:45:00,77.9,72.7,29.96,SSW,202,0.0,0.0,84,0.00,,,0.01,Wunderground v.1.15,2013-07-09 18:45:00,
2013-07-09 14:55:00,78.5,73.6,29.95,SSW,202,0.0,0.0,85,0.00,,,0.01,Wunderground v.1.15,2013-07-09 18:55:00,
2013-07-09 15:05:00,79.0,73.4,29.95,SSW,202,0.0,0.0,83,0.00,,,0.01,Wunderground v.1.15,2013-07-09 19:05:00,
2013-07-09 15:10:00,79.2,73.2,29.95,SSW,202,0.0,4.0,82,0.00,,,0.01,Wunderground v.1.15,2013-07-09 19:10:00,
2013-07-09 15:20:00,79.4,73.4,29.94,SSW,202,0.0,0.0,82,0.00,,,0.01,Wunderground v.1.15,2013-07-09 19:20:00,
2013-07-09 15:25:00,79.4,72.7,29.94,SSW,202,0.0,1.0,80,0.00,,,0.01,Wunderground v.1.15,2013-07-09 19:25:00,
2013-07-09 15:35:00,79.7,73.7,29.94,SSW,202,0.0,1.0,82,0.00,,,0.01,Wunderground v.1.15,2013-07-09 19:35:00,
2013-07-09 15:40:00,79.8,73.8,29.93,SSW,202,0.0,0.0,82,0.00,,,0.01,Wunderground v.1.15,2013-07-09 19:40:00,
2013-07-09 15:50:00,80.2,73.5,29.93,SSW,202,0.0,0.0,80,0.00,,,0.01,Wunderground v.1.15,2013-07-09 19:50:00,
2013-07-09 15:55:00,80.3,73.9,29.93,SSW,202,0.0,0.0,81,0.00,,,0.01,Wunderground v.1.15,2013-07-09 19:55:00,
2013-07-09 16:05:00,80.8,73.7,29.93,SSW,202,0.0,0.0,79,0.00,,,0.01,Wunderground v.1.15,2013-07-09 20:05:00,
2013-07-09 16:10:00,81.0,73.1,29.92,SSW,202,0.0,0.0,77,0.00,,,0.01,Wunderground v.1.15,2013-07-09 20:10:00,
2013-07-09 16:20:00,81.8,75.4,29.92,SSW,202,0.0,0.0,81,0.00,,,0.01,Wunderground v.1.15,2013-07-09 20:20:00,
2013-07-09 16:25:00,82.1,74.6,29.92,SSW,202,0.0,1.0,78,0.00,,,0.01,Wunderground v.1.15,2013-07-09 20:25:00,
2013-07-09 16:30:00,82.8,75.2,29.91,SSW,202,0.0,1.0,78,0.00,,,0.01,Wunderground v.1.15,2013-07-09 20:30:00,
2013-07-09 16:40:00,83.0,75.4,29.91,SSW,202,0.0,0.0,78,0.00,,,0.01,Wunderground v.1.15,2013-07-09 20:40:00,
2013-07-09 16:50:00,83.3,74.9,29.90,SSW,202,0.0,0.0,76,0.00,,,0.01,Wunderground v.1.15,2013-07-09 20:50:00,
2013-07-09 17:00:00,83.6,74.8,29.91,SSW,202,1.0,1.0,75,0.00,,,0.01,Wunderground v.1.15,2013-07-09 21:00:00,
2013-07-09 17:05:00,83.6,74.8,29.91,SSW,202,0.0,1.0,75,0.00,,,0.01,Wunderground v.1.15,2013-07-09 21:05:00,
2013-07-09 17:15:00,83.4,75.4,29.90,SSW,202,0.0,0.0,77,0.00,,,0.01,Wunderground v.1.15,2013-07-09 21:15:00,
2013-07-09 17:20:00,83.2,75.2,29.90,SSW,202,0.0,0.0,77,0.00,,,0.01,Wunderground v.1.15,2013-07-09 21:20:00,
2013-07-09 17:30:00,83.2,74.4,29.90,SSW,202,0.0,0.0,75,0.00,,,0.01,Wunderground v.1.15,2013-07-09 21:30:00,
2013-07-09 17:35:00,83.6,75.2,29.89,SSW,202,0.0,2.0,76,0.00,,,0.01,Wunderground v.1.15,2013-07-09 21:35:00,
2013-07-09 17:45:00,83.8,75.0,29.89,SSW,202,0.0,0.0,75,0.00,,,0.01,Wunderground v.1.15,2013-07-09 21:45:00,
2013-07-09 17:50:00,83.7,74.5,29.89,SSW,202,0.0,0.0,74,0.00,,,0.01,Wunderground v.1.15,2013-07-09 21:50:00,
2013-07-09 18:00:00,83.3,74.5,29.89,SSW,202,0.0,0.0,75,0.00,,,0.01,Wunderground v.1.15,2013-07-09 22:00:00,
2013-07-09 18:05:00,83.0,74.3,29.89,SSW,202,0.0,0.0,75,0.00,,,0.01,Wunderground v.1.15,2013-07-09 22:05:00,
2013-07-09 18:15:00,82.4,74.5,29.89,SSW,202,0.0,1.0,77,0.00,,,0.01,Wunderground v.1.15,2013-07-09 22:15:00,
2013-07-09 18:25:00,81.7,74.5,29.89,SSW,202,0.0,2.0,79,0.00,,,0.01,Wunderground v.1.15,2013-07-09 22:25:00,
2013-07-09 18:35:00,81.2,74.4,29.89,SSW,202,0.0,1.0,80,0.00,,,0.01,Wunderground v.1.15,2013-07-09 22:35:00,
2013-07-09 18:45:00,80.5,74.9,29.88,SSW,202,0.0,0.0,83,0.00,,,0.01,Wunderground v.1.15,2013-07-09 22:45:00,
2013-07-09 18:55:00,80.0,74.7,29.89,SSW,202,0.0,0.0,84,0.00,,,0.01,Wunderground v.1.15,2013-07-09 22:55:00,
2013-07-09 19:00:00,80.0,74.7,29.88,SSW,202,0.0,0.0,84,0.00,,,0.01,Wunderground v.1.15,2013-07-09 23:00:00,
2013-07-09 19:10:00,80.3,75.0,29.88,SSW,202,1.0,1.0,84,0.00,,,0.01,Wunderground v.1.15,2013-07-09 23:10:00,
2013-07-09 19:20:00,80.3,75.0,29.88,SSW,202,1.0,1.0,84,0.00,,,0.01,Wunderground v.1.15,2013-07-09 23:20:00,
2013-07-09 19:30:00,80.1,74.8,29.88,SSW,202,0.0,0.0,84,0.00,,,0.01,Wunderground v.1.15,2013-07-09 23:30:00,
2013-07-09 19:35:00,80.0,74.7,29.88,SSW,202,0.0,0.0,84,0.00,,,0.01,Wunderground v.1.15,2013-07-09 23:35:00,
2013-07-09 19:45:00,79.9,74.6,29.88,SSW,202,0.0,0.0,84,0.00,,,0.01,Wunderground v.1.15,2013-07-09 23:45:00,
2013-07-09 19:55:00,79.6,74.3,29.89,SSW,202,0.0,0.0,84,0.00,,,0.01,Wunderground v.1.15,2013-07-09 23:55:00,
2013-07-09 20:00:00,79.5,74.2,29.89,SSW,202,0.0,0.0,84,0.00,,,0.01,Wunderground v.1.15,2013-07-10 00:00:00,
2013-07-09 20:10:00,79.2,74.6,29.89,SSW,202,0.0,0.0,86,0.00,,,0.01,Wunderground v.1.15,2013-07-10 00:10:00,
2013-07-09 20:15:00,79.0,74.5,29.89,SSW,202,0.0,0.0,86,0.00,,,0.01,Wunderground v.1.15,2013-07-10 00:15:00,
2013-07-09 20:25:00,78.7,74.2,29.89,SSW,202,0.0,0.0,86,0.00,,,0.01,Wunderground v.1.15,2013-07-10 00:25:00,
2013-07-09 20:35:00,78.1,73.9,29.88,SSW,202,0.0,0.0,87,0.00,,,0.01,Wunderground v.1.15,2013-07-10 00:35:00,
2013-07-09 20:45:00,77.4,73.6,29.89,SSW,202,0.0,0.0,88,0.00,,,0.01,Wunderground v.1.15,2013-07-10 00:45:00,
2013-07-09 20:55:00,76.8,73.3,29.88,SSW,202,0.0,0.0,89,0.00,,,0.01,Wunderground v.1.15,2013-07-10 00:55:00,
2013-07-09 21:00:00,76.5,73.3,29.88,SSW,202,0.0,0.0,90,0.00,,,0.01,Wunderground v.1.15,2013-07-10 01:00:00,
2013-07-09 21:10:00,75.8,72.7,29.88,SSW,206,0.0,0.0,90,0.00,,,0.01,Wunderground v.1.15,2013-07-10 01:10:00,
2013-07-09 21:20:00,75.3,72.5,29.89,SSW,206,0.0,0.0,91,0.00,,,0.01,Wunderground v.1.15,2013-07-10 01:20:00,
2013-07-09 21:30:00,74.7,72.2,29.89,SSW,206,0.0,0.0,92,0.00,,,0.01,Wunderground v.1.15,2013-07-10 01:30:00,
2013-07-09 21:35:00,74.4,72.2,29.89,SSW,206,0.0,0.0,93,0.00,,,0.01,Wunderground v.1.15,2013-07-10 01:35:00,
2013-07-09 21:45:00,74.1,72.3,29.89,SSW,206,0.0,0.0,94,0.00,,,0.01,Wunderground v.1.15,2013-07-10 01:45:00,
2013-07-09 21:50:00,73.9,72.1,29.89,SSW,206,0.0,0.0,94,0.00,,,0.01,Wunderground v.1.15,2013-07-10 01:50:00,
2013-07-09 22:00:00,73.5,72.0,29.89,SSW,206,0.0,0.0,95,0.00,,,0.01,Wunderground v.1.15,2013-07-10 02:00:00,
2013-07-09 22:10:00,73.1,71.6,29.89,SSW,206,0.0,0.0,95,0.00,,,0.01,Wunderground v.1.15,2013-07-10 02:10:00,
2013-07-09 22:15:00,73.0,71.5,29.89,SSW,206,0.0,0.0,95,0.00,,,0.01,Wunderground v.1.15,2013-07-10 02:15:00,
2013-07-09 22:25:00,72.9,71.7,29.88,SSW,206,0.0,0.0,96,0.00,,,0.01,Wunderground v.1.15,2013-07-10 02:25:00,
2013-07-09 22:35:00,72.7,71.5,29.88,SSW,206,0.0,0.0,96,0.00,,,0.01,Wunderground v.1.15,2013-07-10 02:35:00,
2013-07-09 22:45:00,72.5,71.6,29.88,SSW,206,0.0,0.0,97,0.00,,,0.01,Wunderground v.1.15,2013-07-10 02:45:00,
2013-07-09 22:50:00,72.4,71.5,29.88,SSW,206,0.0,0.0,97,0.00,,,0.01,Wunderground v.1.15,2013-07-10 02:50:00,
2013-07-09 23:00:00,72.3,71.4,29.88,SSW,206,0.0,1.0,97,0.00,,,0.01,Wunderground v.1.15,2013-07-10 03:00:00,
2013-07-09 23:10:00,72.2,71.3,29.88,SSW,206,0.0,0.0,97,0.00,,,0.01,Wunderground v.1.15,2013-07-10 03:10:00,
2013-07-09 23:15:00,72.1,71.2,29.88,SSW,206,1.0,1.0,97,0.00,,,0.01,Wunderground v.1.15,2013-07-10 03:15:00,
2013-07-09 23:25:00,72.0,71.1,29.87,SSW,206,0.0,1.0,97,0.00,,,0.01,Wunderground v.1.15,2013-07-10 03:25:00,
2013-07-09 23:35:00,72.0,71.1,29.87,SSW,206,0.0,0.0,97,0.00,,,0.01,Wunderground v.1.15,2013-07-10 03:35:00,
2013-07-09 23:40:00,71.9,71.0,29.87,SSW,206,0.0,0.0,97,0.00,,,0.01,Wunderground v.1.15,2013-07-10 03:40:00,
2013-07-09 23:50:00,71.8,70.9,29.87,SSW,206,0.0,0.0,97,0.00,,,0.01,Wunderground v.1.15,2013-07-10 03:50:00,